sensor_id;sensor_type;location;lat;lon;timestamp;P1;durP1;ratioP1;P2;durP2;ratioP2
58101;SDS011;52034;51.926;6.320;2024-01-06T00:00:42;31.83;;;21.07;;
58101;SDS011;52034;51.926;6.320;2024-01-06T00:01:43;28.57;;;20.33;;
58101;SDS011;52034;51.926;6.320;2024-01-06T00:02:43;28.83;;;19.93;;
58101;SDS011;52034;51.926;6.320;2024-01-06T00:03:43;25.20;;;18.77;;
58101;SDS011;52034;51.926;6.320;2024-01-06T00:04:44;26.23;;;19.60;;
58101;SDS011;52034;51.926;6.320;2024-01-06T00:05:44;26.10;;;20.20;;
58101;SDS011;52034;51.926;6.320;2024-01-06T00:06:45;27.30;;;20.00;;
58101;SDS011;52034;51.926;6.320;2024-01-06T00:07:45;29.60;;;20.53;;
58101;SDS011;52034;51.926;6.320;2024-01-06T00:08:45;32.10;;;21.37;;
58101;SDS011;52034;51.926;6.320;2024-01-06T00:09:46;25.07;;;19.07;;
58101;SDS011;52034;51.926;6.320;2024-01-06T00:10:47;25.27;;;19.27;;
58101;SDS011;52034;51.926;6.320;2024-01-06T00:11:47;27.53;;;19.00;;
58101;SDS011;52034;51.926;6.320;2024-01-06T00:12:47;26.03;;;18.90;;
58101;SDS011;52034;51.926;6.320;2024-01-06T00:13:49;23.73;;;17.90;;
58101;SDS011;52034;51.926;6.320;2024-01-06T00:14:49;25.73;;;18.48;;
58101;SDS011;52034;51.926;6.320;2024-01-06T00:15:50;23.63;;;18.73;;
58101;SDS011;52034;51.926;6.320;2024-01-06T00:16:50;23.77;;;18.17;;
58101;SDS011;52034;51.926;6.320;2024-01-06T00:17:51;22.77;;;18.30;;
58101;SDS011;52034;51.926;6.320;2024-01-06T00:18:51;23.23;;;18.10;;
58101;SDS011;52034;51.926;6.320;2024-01-06T00:19:51;26.93;;;19.30;;
58101;SDS011;52034;51.926;6.320;2024-01-06T00:20:52;24.00;;;18.43;;
58101;SDS011;52034;51.926;6.320;2024-01-06T00:21:52;26.57;;;18.53;;
58101;SDS011;52034;51.926;6.320;2024-01-06T00:22:53;22.77;;;17.73;;
58101;SDS011;52034;51.926;6.320;2024-01-06T00:23:53;23.40;;;18.27;;
58101;SDS011;52034;51.926;6.320;2024-01-06T00:24:56;21.00;;;17.17;;
58101;SDS011;52034;51.926;6.320;2024-01-06T00:25:56;24.33;;;18.40;;
58101;SDS011;52034;51.926;6.320;2024-01-06T00:26:56;25.40;;;19.43;;
58101;SDS011;52034;51.926;6.320;2024-01-06T00:27:57;23.30;;;18.03;;
58101;SDS011;52034;51.926;6.320;2024-01-06T00:28:57;23.83;;;17.97;;
58101;SDS011;52034;51.926;6.320;2024-01-06T00:29:58;21.30;;;16.87;;
58101;SDS011;52034;51.926;6.320;2024-01-06T00:30:58;23.53;;;17.53;;
58101;SDS011;52034;51.926;6.320;2024-01-06T00:31:58;24.17;;;17.40;;
58101;SDS011;52034;51.926;6.320;2024-01-06T00:32:59;22.33;;;17.50;;
58101;SDS011;52034;51.926;6.320;2024-01-06T00:33:59;21.80;;;17.80;;
58101;SDS011;52034;51.926;6.320;2024-01-06T00:34:59;22.07;;;16.40;;
58101;SDS011;52034;51.926;6.320;2024-01-06T00:36:00;23.90;;;17.57;;
58101;SDS011;52034;51.926;6.320;2024-01-06T00:37:00;22.70;;;17.23;;
58101;SDS011;52034;51.926;6.320;2024-01-06T00:38:01;22.83;;;18.00;;
58101;SDS011;52034;51.926;6.320;2024-01-06T00:39:01;22.60;;;17.97;;
58101;SDS011;52034;51.926;6.320;2024-01-06T00:40:01;23.87;;;18.67;;
58101;SDS011;52034;51.926;6.320;2024-01-06T00:41:02;24.00;;;18.60;;
58101;SDS011;52034;51.926;6.320;2024-01-06T00:42:03;24.87;;;18.30;;
58101;SDS011;52034;51.926;6.320;2024-01-06T00:43:04;23.47;;;18.13;;
58101;SDS011;52034;51.926;6.320;2024-01-06T00:44:04;21.75;;;17.20;;
58101;SDS011;52034;51.926;6.320;2024-01-06T00:45:05;22.30;;;17.73;;
58101;SDS011;52034;51.926;6.320;2024-01-06T00:46:05;23.17;;;17.93;;
58101;SDS011;52034;51.926;6.320;2024-01-06T00:47:06;25.40;;;19.47;;
58101;SDS011;52034;51.926;6.320;2024-01-06T00:48:06;24.50;;;19.27;;
58101;SDS011;52034;51.926;6.320;2024-01-06T00:49:07;21.90;;;17.47;;
58101;SDS011;52034;51.926;6.320;2024-01-06T00:50:07;26.47;;;19.40;;
58101;SDS011;52034;51.926;6.320;2024-01-06T00:51:08;24.83;;;18.35;;
58101;SDS011;52034;51.926;6.320;2024-01-06T00:52:08;22.30;;;17.60;;
58101;SDS011;52034;51.926;6.320;2024-01-06T00:53:09;25.03;;;18.00;;
58101;SDS011;52034;51.926;6.320;2024-01-06T00:54:09;24.20;;;18.27;;
58101;SDS011;52034;51.926;6.320;2024-01-06T00:55:10;24.17;;;17.43;;
58101;SDS011;52034;51.926;6.320;2024-01-06T00:56:10;23.83;;;17.87;;
58101;SDS011;52034;51.926;6.320;2024-01-06T00:57:10;21.37;;;17.70;;
58101;SDS011;52034;51.926;6.320;2024-01-06T00:58:11;24.77;;;18.33;;
58101;SDS011;52034;51.926;6.320;2024-01-06T00:59:11;24.20;;;18.75;;
58101;SDS011;52034;51.926;6.320;2024-01-06T01:00:12;22.90;;;18.30;;
58101;SDS011;52034;51.926;6.320;2024-01-06T01:01:13;25.70;;;18.60;;
58101;SDS011;52034;51.926;6.320;2024-01-06T01:02:13;23.87;;;17.87;;
58101;SDS011;52034;51.926;6.320;2024-01-06T01:03:13;24.07;;;18.03;;
58101;SDS011;52034;51.926;6.320;2024-01-06T01:04:14;23.47;;;17.60;;
58101;SDS011;52034;51.926;6.320;2024-01-06T01:05:14;22.90;;;17.40;;
58101;SDS011;52034;51.926;6.320;2024-01-06T01:06:15;21.40;;;17.80;;
58101;SDS011;52034;51.926;6.320;2024-01-06T01:07:15;23.10;;;17.43;;
58101;SDS011;52034;51.926;6.320;2024-01-06T01:08:16;24.30;;;18.17;;
58101;SDS011;52034;51.926;6.320;2024-01-06T01:09:16;26.77;;;19.63;;
58101;SDS011;52034;51.926;6.320;2024-01-06T01:10:16;23.97;;;19.00;;
58101;SDS011;52034;51.926;6.320;2024-01-06T01:11:18;26.57;;;20.30;;
58101;SDS011;52034;51.926;6.320;2024-01-06T01:13:19;25.30;;;18.33;;
58101;SDS011;52034;51.926;6.320;2024-01-06T01:14:19;25.23;;;17.53;;
58101;SDS011;52034;51.926;6.320;2024-01-06T01:15:20;25.27;;;18.63;;
58101;SDS011;52034;51.926;6.320;2024-01-06T01:16:20;25.67;;;18.70;;
58101;SDS011;52034;51.926;6.320;2024-01-06T01:17:21;24.20;;;18.70;;
58101;SDS011;52034;51.926;6.320;2024-01-06T01:18:21;28.43;;;19.60;;
58101;SDS011;52034;51.926;6.320;2024-01-06T01:19:21;23.07;;;17.30;;
58101;SDS011;52034;51.926;6.320;2024-01-06T01:20:22;22.23;;;17.03;;
58101;SDS011;52034;51.926;6.320;2024-01-06T01:21:22;26.53;;;18.43;;
58101;SDS011;52034;51.926;6.320;2024-01-06T01:22:22;24.53;;;18.03;;
58101;SDS011;52034;51.926;6.320;2024-01-06T01:23:23;24.57;;;18.80;;
58101;SDS011;52034;51.926;6.320;2024-01-06T01:24:23;27.17;;;19.80;;
58101;SDS011;52034;51.926;6.320;2024-01-06T01:25:24;26.90;;;18.50;;
58101;SDS011;52034;51.926;6.320;2024-01-06T01:26:24;23.90;;;18.13;;
58101;SDS011;52034;51.926;6.320;2024-01-06T01:27:25;25.70;;;18.45;;
58101;SDS011;52034;51.926;6.320;2024-01-06T01:28:25;24.50;;;17.90;;
58101;SDS011;52034;51.926;6.320;2024-01-06T01:29:26;24.23;;;17.87;;
58101;SDS011;52034;51.926;6.320;2024-01-06T01:30:26;25.87;;;19.07;;
58101;SDS011;52034;51.926;6.320;2024-01-06T01:31:27;26.00;;;19.55;;
58101;SDS011;52034;51.926;6.320;2024-01-06T01:32:28;26.37;;;19.37;;
58101;SDS011;52034;51.926;6.320;2024-01-06T01:33:28;25.40;;;19.10;;
58101;SDS011;52034;51.926;6.320;2024-01-06T01:34:28;26.37;;;19.20;;
58101;SDS011;52034;51.926;6.320;2024-01-06T01:35:29;27.67;;;20.33;;
58101;SDS011;52034;51.926;6.320;2024-01-06T01:36:29;28.83;;;20.50;;
58101;SDS011;52034;51.926;6.320;2024-01-06T01:37:29;27.40;;;19.87;;
58101;SDS011;52034;51.926;6.320;2024-01-06T01:38:30;26.30;;;19.63;;
58101;SDS011;52034;51.926;6.320;2024-01-06T01:39:30;24.93;;;19.10;;
58101;SDS011;52034;51.926;6.320;2024-01-06T01:40:30;28.70;;;20.60;;
58101;SDS011;52034;51.926;6.320;2024-01-06T01:41:31;27.57;;;19.80;;
58101;SDS011;52034;51.926;6.320;2024-01-06T01:42:32;25.93;;;19.63;;
58101;SDS011;52034;51.926;6.320;2024-01-06T01:43:33;27.20;;;20.35;;
58101;SDS011;52034;51.926;6.320;2024-01-06T01:44:33;28.80;;;21.17;;
58101;SDS011;52034;51.926;6.320;2024-01-06T01:45:33;27.03;;;20.87;;
58101;SDS011;52034;51.926;6.320;2024-01-06T01:46:34;27.70;;;21.17;;
58101;SDS011;52034;51.926;6.320;2024-01-06T01:47:35;29.35;;;22.08;;
58101;SDS011;52034;51.926;6.320;2024-01-06T01:48:36;29.17;;;21.92;;
58101;SDS011;52034;51.926;6.320;2024-01-06T01:49:37;26.80;;;21.43;;
58101;SDS011;52034;51.926;6.320;2024-01-06T01:50:38;29.20;;;22.02;;
58101;SDS011;52034;51.926;6.320;2024-01-06T01:51:38;32.03;;;23.27;;
58101;SDS011;52034;51.926;6.320;2024-01-06T01:52:39;31.57;;;22.07;;
58101;SDS011;52034;51.926;6.320;2024-01-06T01:53:41;30.02;;;21.80;;
58101;SDS011;52034;51.926;6.320;2024-01-06T01:54:42;32.75;;;24.45;;
58101;SDS011;52034;51.926;6.320;2024-01-06T01:55:44;32.17;;;23.92;;
58101;SDS011;52034;51.926;6.320;2024-01-06T01:56:45;30.55;;;23.70;;
58101;SDS011;52034;51.926;6.320;2024-01-06T01:57:45;33.23;;;24.50;;
58101;SDS011;52034;51.926;6.320;2024-01-06T01:58:46;31.52;;;23.60;;
58101;SDS011;52034;51.926;6.320;2024-01-06T01:59:47;32.78;;;25.00;;
58101;SDS011;52034;51.926;6.320;2024-01-06T02:00:48;34.47;;;25.60;;
58101;SDS011;52034;51.926;6.320;2024-01-06T02:01:48;36.73;;;26.77;;
58101;SDS011;52034;51.926;6.320;2024-01-06T02:02:49;37.30;;;25.50;;
58101;SDS011;52034;51.926;6.320;2024-01-06T02:03:50;34.50;;;24.83;;
58101;SDS011;52034;51.926;6.320;2024-01-06T02:04:50;37.57;;;25.53;;
58101;SDS011;52034;51.926;6.320;2024-01-06T02:05:51;36.67;;;25.83;;
58101;SDS011;52034;51.926;6.320;2024-01-06T02:06:51;34.27;;;25.83;;
58101;SDS011;52034;51.926;6.320;2024-01-06T02:07:52;36.77;;;26.20;;
58101;SDS011;52034;51.926;6.320;2024-01-06T02:08:52;38.47;;;27.23;;
58101;SDS011;52034;51.926;6.320;2024-01-06T02:09:53;44.83;;;28.10;;
58101;SDS011;52034;51.926;6.320;2024-01-06T02:10:54;35.37;;;26.47;;
58101;SDS011;52034;51.926;6.320;2024-01-06T02:11:56;36.00;;;26.75;;
58101;SDS011;52034;51.926;6.320;2024-01-06T02:13:06;36.85;;;27.00;;
58101;SDS011;52034;51.926;6.320;2024-01-06T02:14:08;40.13;;;27.73;;
58101;SDS011;52034;51.926;6.320;2024-01-06T02:15:08;43.83;;;28.13;;
58101;SDS011;52034;51.926;6.320;2024-01-06T02:16:09;43.77;;;27.97;;
58101;SDS011;52034;51.926;6.320;2024-01-06T02:17:09;45.37;;;28.77;;
58101;SDS011;52034;51.926;6.320;2024-01-06T02:18:09;40.57;;;27.93;;
58101;SDS011;52034;51.926;6.320;2024-01-06T02:19:11;40.90;;;28.90;;
58101;SDS011;52034;51.926;6.320;2024-01-06T02:20:13;43.17;;;28.35;;
58101;SDS011;52034;51.926;6.320;2024-01-06T02:21:14;36.78;;;27.42;;
58101;SDS011;52034;51.926;6.320;2024-01-06T02:22:15;45.73;;;29.50;;
58101;SDS011;52034;51.926;6.320;2024-01-06T02:23:15;37.93;;;25.80;;
58101;SDS011;52034;51.926;6.320;2024-01-06T02:24:16;35.50;;;25.37;;
58101;SDS011;52034;51.926;6.320;2024-01-06T02:25:16;33.03;;;23.63;;
58101;SDS011;52034;51.926;6.320;2024-01-06T02:27:18;35.50;;;25.40;;
58101;SDS011;52034;51.926;6.320;2024-01-06T02:28:19;35.03;;;24.63;;
58101;SDS011;52034;51.926;6.320;2024-01-06T02:29:19;34.47;;;24.70;;
58101;SDS011;52034;51.926;6.320;2024-01-06T02:30:20;32.80;;;24.13;;
58101;SDS011;52034;51.926;6.320;2024-01-06T02:31:20;32.57;;;23.60;;
58101;SDS011;52034;51.926;6.320;2024-01-06T02:32:20;31.60;;;22.83;;
58101;SDS011;52034;51.926;6.320;2024-01-06T02:33:21;37.70;;;25.23;;
58101;SDS011;52034;51.926;6.320;2024-01-06T02:34:24;33.72;;;23.75;;
58101;SDS011;52034;51.926;6.320;2024-01-06T02:35:24;32.10;;;24.10;;
58101;SDS011;52034;51.926;6.320;2024-01-06T02:36:24;31.00;;;24.03;;
58101;SDS011;52034;51.926;6.320;2024-01-06T02:37:25;32.47;;;23.87;;
58101;SDS011;52034;51.926;6.320;2024-01-06T02:38:25;31.33;;;23.50;;
58101;SDS011;52034;51.926;6.320;2024-01-06T02:39:26;35.53;;;24.17;;
58101;SDS011;52034;51.926;6.320;2024-01-06T02:40:26;38.47;;;25.57;;
58101;SDS011;52034;51.926;6.320;2024-01-06T02:41:26;35.20;;;24.97;;
58101;SDS011;52034;51.926;6.320;2024-01-06T02:42:27;44.33;;;27.87;;
58101;SDS011;52034;51.926;6.320;2024-01-06T02:43:27;36.47;;;25.30;;
58101;SDS011;52034;51.926;6.320;2024-01-06T02:44:27;36.13;;;25.30;;
58101;SDS011;52034;51.926;6.320;2024-01-06T02:45:28;36.47;;;23.53;;
58101;SDS011;52034;51.926;6.320;2024-01-06T02:46:28;34.00;;;24.27;;
58101;SDS011;52034;51.926;6.320;2024-01-06T02:47:29;38.67;;;26.37;;
58101;SDS011;52034;51.926;6.320;2024-01-06T02:48:29;36.77;;;25.53;;
58101;SDS011;52034;51.926;6.320;2024-01-06T02:49:30;40.63;;;26.67;;
58101;SDS011;52034;51.926;6.320;2024-01-06T02:50:31;41.07;;;26.00;;
58101;SDS011;52034;51.926;6.320;2024-01-06T02:51:31;37.47;;;25.30;;
58101;SDS011;52034;51.926;6.320;2024-01-06T02:52:32;55.53;;;28.47;;
58101;SDS011;52034;51.926;6.320;2024-01-06T02:53:32;36.33;;;25.67;;
58101;SDS011;52034;51.926;6.320;2024-01-06T02:54:32;45.57;;;28.73;;
58101;SDS011;52034;51.926;6.320;2024-01-06T02:55:33;45.13;;;28.33;;
58101;SDS011;52034;51.926;6.320;2024-01-06T02:56:33;38.40;;;27.33;;
58101;SDS011;52034;51.926;6.320;2024-01-06T02:57:33;43.67;;;28.40;;
58101;SDS011;52034;51.926;6.320;2024-01-06T02:58:34;44.80;;;28.43;;
58101;SDS011;52034;51.926;6.320;2024-01-06T02:59:34;55.90;;;29.77;;
58101;SDS011;52034;51.926;6.320;2024-01-06T03:00:34;47.93;;;28.73;;
58101;SDS011;52034;51.926;6.320;2024-01-06T03:01:35;47.20;;;29.10;;
58101;SDS011;52034;51.926;6.320;2024-01-06T03:02:36;36.83;;;25.05;;
58101;SDS011;52034;51.926;6.320;2024-01-06T03:03:37;36.50;;;23.75;;
58101;SDS011;52034;51.926;6.320;2024-01-06T03:04:38;37.83;;;24.70;;
58101;SDS011;52034;51.926;6.320;2024-01-06T03:05:38;33.87;;;23.27;;
58101;SDS011;52034;51.926;6.320;2024-01-06T03:06:38;34.40;;;23.53;;
58101;SDS011;52034;51.926;6.320;2024-01-06T03:07:39;35.33;;;23.80;;
58101;SDS011;52034;51.926;6.320;2024-01-06T03:08:39;34.67;;;23.57;;
58101;SDS011;52034;51.926;6.320;2024-01-06T03:09:40;34.70;;;24.93;;
58101;SDS011;52034;51.926;6.320;2024-01-06T03:10:40;39.90;;;25.83;;
58101;SDS011;52034;51.926;6.320;2024-01-06T03:11:41;33.97;;;24.30;;
58101;SDS011;52034;51.926;6.320;2024-01-06T03:12:41;34.73;;;23.33;;
58101;SDS011;52034;51.926;6.320;2024-01-06T03:13:41;43.87;;;26.67;;
58101;SDS011;52034;51.926;6.320;2024-01-06T03:14:42;30.93;;;23.63;;
58101;SDS011;52034;51.926;6.320;2024-01-06T03:15:42;30.80;;;23.00;;
58101;SDS011;52034;51.926;6.320;2024-01-06T03:16:42;41.23;;;25.97;;
58101;SDS011;52034;51.926;6.320;2024-01-06T03:17:43;44.73;;;27.30;;
58101;SDS011;52034;51.926;6.320;2024-01-06T03:18:43;37.53;;;25.40;;
58101;SDS011;52034;51.926;6.320;2024-01-06T03:19:44;35.10;;;24.90;;
58101;SDS011;52034;51.926;6.320;2024-01-06T03:20:44;33.93;;;24.03;;
58101;SDS011;52034;51.926;6.320;2024-01-06T03:21:45;41.10;;;25.53;;
58101;SDS011;52034;51.926;6.320;2024-01-06T03:22:45;40.87;;;25.37;;
58101;SDS011;52034;51.926;6.320;2024-01-06T03:23:48;37.22;;;25.45;;
58101;SDS011;52034;51.926;6.320;2024-01-06T03:24:48;43.50;;;26.98;;
58101;SDS011;52034;51.926;6.320;2024-01-06T03:25:49;39.93;;;27.17;;
58101;SDS011;52034;51.926;6.320;2024-01-06T03:26:49;35.60;;;25.67;;
58101;SDS011;52034;51.926;6.320;2024-01-06T03:27:50;33.28;;;23.58;;
58101;SDS011;52034;51.926;6.320;2024-01-06T03:28:50;36.50;;;24.80;;
58101;SDS011;52034;51.926;6.320;2024-01-06T03:29:51;35.83;;;25.27;;
58101;SDS011;52034;51.926;6.320;2024-01-06T03:30:51;37.87;;;26.27;;
58101;SDS011;52034;51.926;6.320;2024-01-06T03:31:51;35.93;;;24.63;;
58101;SDS011;52034;51.926;6.320;2024-01-06T03:32:52;34.63;;;25.33;;
58101;SDS011;52034;51.926;6.320;2024-01-06T03:33:52;41.77;;;26.60;;
58101;SDS011;52034;51.926;6.320;2024-01-06T03:35:54;33.67;;;23.70;;
58101;SDS011;52034;51.926;6.320;2024-01-06T03:36:55;41.97;;;25.87;;
58101;SDS011;52034;51.926;6.320;2024-01-06T03:37:55;36.57;;;23.47;;
58101;SDS011;52034;51.926;6.320;2024-01-06T03:38:55;35.30;;;24.00;;
58101;SDS011;52034;51.926;6.320;2024-01-06T03:39:56;35.27;;;22.97;;
58101;SDS011;52034;51.926;6.320;2024-01-06T03:40:56;37.87;;;24.73;;
58101;SDS011;52034;51.926;6.320;2024-01-06T03:41:57;41.90;;;25.77;;
58101;SDS011;52034;51.926;6.320;2024-01-06T03:43:00;40.22;;;24.15;;
58101;SDS011;52034;51.926;6.320;2024-01-06T03:44:01;34.23;;;23.23;;
58101;SDS011;52034;51.926;6.320;2024-01-06T03:45:01;32.93;;;22.40;;
58101;SDS011;52034;51.926;6.320;2024-01-06T03:46:01;37.93;;;23.93;;
58101;SDS011;52034;51.926;6.320;2024-01-06T03:47:02;35.23;;;24.43;;
58101;SDS011;52034;51.926;6.320;2024-01-06T03:48:02;46.87;;;25.37;;
58101;SDS011;52034;51.926;6.320;2024-01-06T03:49:03;31.23;;;22.40;;
58101;SDS011;52034;51.926;6.320;2024-01-06T03:50:04;32.03;;;22.55;;
58101;SDS011;52034;51.926;6.320;2024-01-06T03:51:04;31.35;;;21.55;;
58101;SDS011;52034;51.926;6.320;2024-01-06T03:52:06;38.60;;;22.65;;
58101;SDS011;52034;51.926;6.320;2024-01-06T03:53:06;30.93;;;21.43;;
58101;SDS011;52034;51.926;6.320;2024-01-06T03:54:07;32.40;;;22.20;;
58101;SDS011;52034;51.926;6.320;2024-01-06T03:55:07;35.50;;;22.37;;
58101;SDS011;52034;51.926;6.320;2024-01-06T03:56:08;38.00;;;23.73;;
58101;SDS011;52034;51.926;6.320;2024-01-06T03:57:08;39.30;;;23.07;;
58101;SDS011;52034;51.926;6.320;2024-01-06T03:58:09;35.73;;;24.93;;
58101;SDS011;52034;51.926;6.320;2024-01-06T03:59:09;38.10;;;24.87;;
58101;SDS011;52034;51.926;6.320;2024-01-06T04:00:09;40.67;;;25.20;;
58101;SDS011;52034;51.926;6.320;2024-01-06T04:01:10;43.72;;;26.73;;
58101;SDS011;52034;51.926;6.320;2024-01-06T04:02:11;41.50;;;26.83;;
58101;SDS011;52034;51.926;6.320;2024-01-06T04:03:11;52.07;;;29.33;;
58101;SDS011;52034;51.926;6.320;2024-01-06T04:04:12;50.80;;;28.23;;
58101;SDS011;52034;51.926;6.320;2024-01-06T04:05:12;50.80;;;28.53;;
58101;SDS011;52034;51.926;6.320;2024-01-06T04:06:13;51.93;;;29.07;;
58101;SDS011;52034;51.926;6.320;2024-01-06T04:07:14;63.60;;;31.60;;
58101;SDS011;52034;51.926;6.320;2024-01-06T04:08:14;45.93;;;27.23;;
58101;SDS011;52034;51.926;6.320;2024-01-06T04:09:14;73.10;;;33.83;;
58101;SDS011;52034;51.926;6.320;2024-01-06T04:10:15;65.30;;;31.40;;
58101;SDS011;52034;51.926;6.320;2024-01-06T04:11:15;55.77;;;29.77;;
58101;SDS011;52034;51.926;6.320;2024-01-06T04:12:16;75.67;;;34.83;;
58101;SDS011;52034;51.926;6.320;2024-01-06T04:13:16;51.57;;;29.80;;
58101;SDS011;52034;51.926;6.320;2024-01-06T04:14:17;52.93;;;30.17;;
58101;SDS011;52034;51.926;6.320;2024-01-06T04:15:17;45.17;;;28.63;;
58101;SDS011;52034;51.926;6.320;2024-01-06T04:16:17;61.67;;;30.97;;
58101;SDS011;52034;51.926;6.320;2024-01-06T04:17:18;54.50;;;29.97;;
58101;SDS011;52034;51.926;6.320;2024-01-06T04:18:18;61.77;;;31.70;;
58101;SDS011;52034;51.926;6.320;2024-01-06T04:19:18;63.60;;;32.63;;
58101;SDS011;52034;51.926;6.320;2024-01-06T04:21:21;53.70;;;29.85;;
58101;SDS011;52034;51.926;6.320;2024-01-06T04:22:22;54.95;;;29.95;;
58101;SDS011;52034;51.926;6.320;2024-01-06T04:24:24;55.42;;;30.52;;
58101;SDS011;52034;51.926;6.320;2024-01-06T04:25:25;46.37;;;28.87;;
58101;SDS011;52034;51.926;6.320;2024-01-06T04:26:25;55.63;;;29.63;;
58101;SDS011;52034;51.926;6.320;2024-01-06T04:27:25;56.17;;;31.93;;
58101;SDS011;52034;51.926;6.320;2024-01-06T04:28:26;62.33;;;32.67;;
58101;SDS011;52034;51.926;6.320;2024-01-06T04:29:26;49.07;;;29.77;;
58101;SDS011;52034;51.926;6.320;2024-01-06T04:30:27;68.77;;;33.27;;
58101;SDS011;52034;51.926;6.320;2024-01-06T04:31:27;81.00;;;35.03;;
58101;SDS011;52034;51.926;6.320;2024-01-06T04:32:28;69.17;;;33.63;;
58101;SDS011;52034;51.926;6.320;2024-01-06T04:33:28;58.27;;;31.90;;
58101;SDS011;52034;51.926;6.320;2024-01-06T04:34:28;75.93;;;35.13;;
58101;SDS011;52034;51.926;6.320;2024-01-06T04:35:29;71.50;;;34.67;;
58101;SDS011;52034;51.926;6.320;2024-01-06T04:36:29;98.70;;;40.40;;
58101;SDS011;52034;51.926;6.320;2024-01-06T04:37:29;76.37;;;38.10;;
58101;SDS011;52034;51.926;6.320;2024-01-06T04:38:30;90.80;;;40.60;;
58101;SDS011;52034;51.926;6.320;2024-01-06T04:39:30;83.30;;;38.57;;
58101;SDS011;52034;51.926;6.320;2024-01-06T04:40:31;98.67;;;40.10;;
58101;SDS011;52034;51.926;6.320;2024-01-06T04:41:31;81.10;;;38.57;;
58101;SDS011;52034;51.926;6.320;2024-01-06T04:42:31;130.20;;;45.73;;
58101;SDS011;52034;51.926;6.320;2024-01-06T04:43:32;121.13;;;46.50;;
58101;SDS011;52034;51.926;6.320;2024-01-06T04:44:32;83.10;;;40.20;;
58101;SDS011;52034;51.926;6.320;2024-01-06T04:45:33;68.37;;;38.27;;
58101;SDS011;52034;51.926;6.320;2024-01-06T04:46:33;92.90;;;39.90;;
58101;SDS011;52034;51.926;6.320;2024-01-06T04:47:34;100.33;;;43.00;;
58101;SDS011;52034;51.926;6.320;2024-01-06T04:48:34;83.27;;;39.30;;
58101;SDS011;52034;51.926;6.320;2024-01-06T04:49:34;83.90;;;40.33;;
58101;SDS011;52034;51.926;6.320;2024-01-06T04:50:35;106.30;;;42.57;;
58101;SDS011;52034;51.926;6.320;2024-01-06T04:51:35;86.17;;;40.73;;
58101;SDS011;52034;51.926;6.320;2024-01-06T04:52:35;111.70;;;44.77;;
58101;SDS011;52034;51.926;6.320;2024-01-06T04:53:38;99.00;;;42.63;;
58101;SDS011;52034;51.926;6.320;2024-01-06T04:54:38;88.88;;;40.75;;
58101;SDS011;52034;51.926;6.320;2024-01-06T04:55:39;84.17;;;39.83;;
58101;SDS011;52034;51.926;6.320;2024-01-06T04:56:39;131.37;;;47.17;;
58101;SDS011;52034;51.926;6.320;2024-01-06T04:57:41;78.83;;;40.50;;
58101;SDS011;52034;51.926;6.320;2024-01-06T04:58:41;82.70;;;39.65;;
58101;SDS011;52034;51.926;6.320;2024-01-06T04:59:42;80.33;;;38.93;;
58101;SDS011;52034;51.926;6.320;2024-01-06T05:00:42;95.53;;;41.77;;
58101;SDS011;52034;51.926;6.320;2024-01-06T05:01:42;79.63;;;39.50;;
58101;SDS011;52034;51.926;6.320;2024-01-06T05:02:43;101.83;;;43.80;;
58101;SDS011;52034;51.926;6.320;2024-01-06T05:03:44;82.32;;;40.45;;
58101;SDS011;52034;51.926;6.320;2024-01-06T05:04:44;93.53;;;40.73;;
58101;SDS011;52034;51.926;6.320;2024-01-06T05:05:44;76.93;;;39.80;;
58101;SDS011;52034;51.926;6.320;2024-01-06T05:06:45;73.70;;;39.03;;
58101;SDS011;52034;51.926;6.320;2024-01-06T05:07:45;93.53;;;41.57;;
58101;SDS011;52034;51.926;6.320;2024-01-06T05:08:46;91.57;;;42.23;;
58101;SDS011;52034;51.926;6.320;2024-01-06T05:09:46;78.90;;;39.50;;
58101;SDS011;52034;51.926;6.320;2024-01-06T05:10:47;91.17;;;42.10;;
58101;SDS011;52034;51.926;6.320;2024-01-06T05:11:47;106.60;;;44.47;;
58101;SDS011;52034;51.926;6.320;2024-01-06T05:12:47;87.80;;;43.20;;
58101;SDS011;52034;51.926;6.320;2024-01-06T05:13:48;91.87;;;41.67;;
58101;SDS011;52034;51.926;6.320;2024-01-06T05:14:48;91.47;;;42.53;;
58101;SDS011;52034;51.926;6.320;2024-01-06T05:15:48;101.60;;;44.67;;
58101;SDS011;52034;51.926;6.320;2024-01-06T05:16:49;104.83;;;45.23;;
58101;SDS011;52034;51.926;6.320;2024-01-06T05:17:50;95.33;;;45.13;;
58101;SDS011;52034;51.926;6.320;2024-01-06T05:18:50;118.80;;;46.43;;
58101;SDS011;52034;51.926;6.320;2024-01-06T05:19:51;92.87;;;44.43;;
58101;SDS011;52034;51.926;6.320;2024-01-06T05:20:51;146.43;;;51.57;;
58101;SDS011;52034;51.926;6.320;2024-01-06T05:21:51;86.83;;;43.60;;
58101;SDS011;52034;51.926;6.320;2024-01-06T05:22:52;84.50;;;42.90;;
58101;SDS011;52034;51.926;6.320;2024-01-06T05:23:52;108.17;;;45.97;;
58101;SDS011;52034;51.926;6.320;2024-01-06T05:24:53;125.53;;;48.40;;
58101;SDS011;52034;51.926;6.320;2024-01-06T05:25:53;84.10;;;42.50;;
58101;SDS011;52034;51.926;6.320;2024-01-06T05:26:54;95.07;;;44.37;;
58101;SDS011;52034;51.926;6.320;2024-01-06T05:27:54;92.37;;;45.10;;
58101;SDS011;52034;51.926;6.320;2024-01-06T05:28:54;91.50;;;44.90;;
58101;SDS011;52034;51.926;6.320;2024-01-06T05:29:55;104.27;;;46.67;;
58101;SDS011;52034;51.926;6.320;2024-01-06T05:30:55;79.60;;;42.60;;
58101;SDS011;52034;51.926;6.320;2024-01-06T05:31:55;107.23;;;46.80;;
58101;SDS011;52034;51.926;6.320;2024-01-06T05:32:56;121.40;;;49.27;;
58101;SDS011;52034;51.926;6.320;2024-01-06T05:33:56;118.33;;;48.40;;
58101;SDS011;52034;51.926;6.320;2024-01-06T05:34:57;119.77;;;48.43;;
58101;SDS011;52034;51.926;6.320;2024-01-06T05:35:57;90.23;;;42.93;;
58101;SDS011;52034;51.926;6.320;2024-01-06T05:36:58;140.87;;;52.77;;
58101;SDS011;52034;51.926;6.320;2024-01-06T05:37:58;119.53;;;48.07;;
58101;SDS011;52034;51.926;6.320;2024-01-06T05:38:58;86.03;;;43.47;;
58101;SDS011;52034;51.926;6.320;2024-01-06T05:40:00;148.07;;;51.78;;
58101;SDS011;52034;51.926;6.320;2024-01-06T05:41:03;123.25;;;49.30;;
58101;SDS011;52034;51.926;6.320;2024-01-06T05:42:03;140.20;;;51.77;;
58101;SDS011;52034;51.926;6.320;2024-01-06T05:43:04;122.03;;;48.13;;
58101;SDS011;52034;51.926;6.320;2024-01-06T05:44:04;96.27;;;46.27;;
58101;SDS011;52034;51.926;6.320;2024-01-06T05:45:05;78.33;;;44.17;;
58101;SDS011;52034;51.926;6.320;2024-01-06T05:46:06;91.83;;;44.97;;
58101;SDS011;52034;51.926;6.320;2024-01-06T05:48:08;114.90;;;47.67;;
58101;SDS011;52034;51.926;6.320;2024-01-06T05:49:10;149.00;;;52.70;;
58101;SDS011;52034;51.926;6.320;2024-01-06T05:50:10;85.37;;;44.23;;
58101;SDS011;52034;51.926;6.320;2024-01-06T05:51:11;89.10;;;44.37;;
58101;SDS011;52034;51.926;6.320;2024-01-06T05:52:11;103.43;;;46.87;;
58101;SDS011;52034;51.926;6.320;2024-01-06T05:53:12;82.80;;;45.33;;
58101;SDS011;52034;51.926;6.320;2024-01-06T05:54:14;121.60;;;49.25;;
58101;SDS011;52034;51.926;6.320;2024-01-06T05:55:14;187.07;;;56.80;;
58101;SDS011;52034;51.926;6.320;2024-01-06T05:56:25;81.47;;;43.15;;
58101;SDS011;52034;51.926;6.320;2024-01-06T05:57:26;105.40;;;46.80;;
58101;SDS011;52034;51.926;6.320;2024-01-06T05:58:26;97.53;;;46.67;;
58101;SDS011;52034;51.926;6.320;2024-01-06T05:59:27;126.30;;;49.63;;
58101;SDS011;52034;51.926;6.320;2024-01-06T06:00:27;106.17;;;48.47;;